createdAt,value
2023-04-30T00:35:19.881Z,13.60
2023-04-30T00:53:06.244Z,13.20
2023-04-30T00:58:59.408Z,13.10
2023-04-30T01:35:20.986Z,12.60
2023-04-30T01:46:49.530Z,12.40
2023-04-30T02:39:56.576Z,11.50
2023-04-30T09:04:58.418Z,16.70
2023-04-30T09:23:15.735Z,17.30
2023-04-30T10:22:16.936Z,18.90
2023-04-30T10:27:31.103Z,19.20
2023-04-30T10:32:52.294Z,19.40
2023-04-30T10:38:39.227Z,19.50
2023-04-30T10:44:26.558Z,19.70
2023-04-30T10:49:42.857Z,19.80
2023-04-30T10:55:39.154Z,19.90
2023-04-30T11:01:26.664Z,20.10
2023-04-30T11:07:50.487Z,20.30
2023-04-30T11:13:11.592Z,20.40
2023-04-30T11:18:18.145Z,20.50
2023-04-30T11:23:41.806Z,20.70
2023-04-30T11:29:05.774Z,20.80
2023-04-30T11:34:24.820Z,20.80
2023-04-30T11:39:48.203Z,20.90
2023-04-30T11:46:07.478Z,21.00
2023-04-30T11:52:08.961Z,21.20
2023-04-30T12:46:49.131Z,21.80
2023-04-30T13:17:44.861Z,22.50
2023-04-30T13:42:30.704Z,22.80
2023-04-30T16:08:25.130Z,23.40
2023-04-30T16:14:30.046Z,23.20
2023-04-30T16:26:32.293Z,22.80
2023-04-30T16:38:20.505Z,22.70
2023-04-30T16:50:07.766Z,22.70
2023-04-30T17:13:32.897Z,22.50
2023-04-30T17:19:14.205Z,22.40
2023-04-30T17:25:03.411Z,22.20
2023-04-30T17:37:35.277Z,21.80
2023-04-30T17:49:18.046Z,21.60
2023-04-30T17:54:51.643Z,21.30
2023-04-30T18:06:35.313Z,20.80
2023-04-30T18:12:11.900Z,20.60
2023-04-30T18:18:05.113Z,20.50
2023-04-30T18:23:46.060Z,20.30
2023-04-30T18:29:32.808Z,20.00
2023-04-30T18:34:42.813Z,19.80
2023-04-30T18:39:59.649Z,19.60
2023-04-30T18:45:12.075Z,19.50
2023-04-30T18:50:48.940Z,19.30
2023-04-30T18:55:53.642Z,19.10
2023-04-30T19:00:59.747Z,19.00
2023-04-30T19:06:04.161Z,18.90
2023-04-30T19:11:10.889Z,18.80
2023-04-30T19:16:34.439Z,18.60
2023-04-30T19:21:38.409Z,18.50
2023-04-30T19:26:43.465Z,18.30
2023-04-30T19:31:54.866Z,18.30
2023-04-30T19:37:00.940Z,18.20
2023-04-30T19:42:18.131Z,18.10
2023-04-30T19:47:53.121Z,18.00
2023-04-30T19:53:20.911Z,17.90
2023-04-30T19:58:49.966Z,17.80
2023-04-30T20:04:15.028Z,17.70
2023-04-30T20:09:38.866Z,17.60
2023-04-30T20:15:01.961Z,17.50
2023-04-30T20:20:30.075Z,17.40
2023-04-30T20:31:39.993Z,17.20
2023-04-30T20:37:10.988Z,17.00
2023-04-30T20:42:36.238Z,16.80
2023-04-30T20:48:07.518Z,16.70
2023-04-30T20:53:34.011Z,16.50
2023-04-30T20:58:57.123Z,16.40
2023-04-30T21:04:19.972Z,16.40
2023-04-30T21:09:45.198Z,16.30
2023-04-30T21:15:08.998Z,16.20
2023-04-30T21:20:32.890Z,16.10
2023-04-30T21:26:02.083Z,15.90
2023-04-30T21:31:25.115Z,15.90
2023-04-30T21:36:48.055Z,15.80
2023-04-30T21:42:12.951Z,15.80
2023-04-30T21:47:36.978Z,15.60
2023-04-30T21:53:03.043Z,15.50
2023-04-30T21:58:27.980Z,15.50
2023-04-30T22:03:54.108Z,15.40
2023-04-30T22:09:21.122Z,15.40
2023-04-30T22:14:47.972Z,15.30
2023-04-30T22:20:15.976Z,15.30
2023-04-30T22:25:39.116Z,15.20
2023-04-30T22:31:14.175Z,15.00
2023-04-30T22:36:37.088Z,14.90
2023-04-30T22:42:01.097Z,14.70
2023-04-30T22:47:26.238Z,14.60
2023-04-30T22:52:49.052Z,14.60
2023-04-30T22:58:13.259Z,14.50
2023-04-30T23:03:39.013Z,14.50
2023-04-30T23:09:02.250Z,14.40
2023-04-30T23:14:25.186Z,14.30
2023-04-30T23:19:50.228Z,14.30
2023-04-30T23:25:13.231Z,14.30
2023-04-30T23:30:38.083Z,14.20
2023-04-30T23:36:03.101Z,14.10
2023-04-30T23:41:26.049Z,14.00
2023-04-30T23:46:49.137Z,13.90
2023-04-30T23:52:14.052Z,13.80
2023-04-30T23:57:37.124Z,13.70
